createdAt,value
2023-02-27T00:02:19.881Z,-0.10
2023-02-27T00:04:47.318Z,-0.10
2023-02-27T00:07:14.423Z,-0.20
2023-02-27T00:09:42.992Z,-0.20
2023-02-27T00:12:14.323Z,-0.20
2023-02-27T00:14:41.823Z,-0.20
2023-02-27T00:17:09.133Z,-0.20
2023-02-27T00:19:36.632Z,-0.30
2023-02-27T00:22:10.395Z,-0.30
2023-02-27T00:24:46.495Z,-0.30
2023-02-27T00:27:13.890Z,-0.30
2023-02-27T00:29:41.106Z,-0.30
2023-02-27T00:32:11.435Z,-0.30
2023-02-27T00:34:38.789Z,-0.30
2023-02-27T00:37:06.010Z,-0.30
2023-02-27T00:39:33.393Z,-0.30
2023-02-27T00:42:00.538Z,-0.30
2023-02-27T00:44:27.802Z,-0.30
2023-02-27T00:46:55.126Z,-0.30
2023-02-27T00:49:24.659Z,-0.30
2023-02-27T00:51:52.271Z,-0.40
2023-02-27T00:54:20.637Z,-0.40
2023-02-27T00:56:48.226Z,-0.40
2023-02-27T00:59:15.576Z,-0.40
2023-02-27T01:01:44.764Z,-0.50
2023-02-27T01:04:12.244Z,-0.50
2023-02-27T01:06:39.672Z,-0.60
2023-02-27T01:09:07.957Z,-0.60
2023-02-27T01:11:35.127Z,-0.60
2023-02-27T01:14:02.820Z,-0.60
2023-02-27T01:16:30.571Z,-0.70
2023-02-27T01:18:57.980Z,-0.60
2023-02-27T01:21:25.817Z,-0.60
2023-02-27T01:23:53.602Z,-0.60
2023-02-27T01:26:21.093Z,-0.60
2023-02-27T01:28:48.514Z,-0.50
2023-02-27T01:31:15.861Z,-0.50
2023-02-27T01:33:43.129Z,-0.50
2023-02-27T01:36:11.030Z,-0.50
2023-02-27T01:38:38.525Z,-0.50
2023-02-27T01:41:07.463Z,-0.50
2023-02-27T01:43:35.131Z,-0.50
2023-02-27T01:46:02.469Z,-0.50
2023-02-27T01:48:37.399Z,-0.50
2023-02-27T01:51:25.143Z,-0.50
2023-02-27T01:53:53.661Z,-0.60
2023-02-27T01:56:28.679Z,-0.60
2023-02-27T01:58:58.125Z,-0.60
2023-02-27T02:01:27.428Z,-0.60
2023-02-27T02:04:10.569Z,-0.60
2023-02-27T02:06:40.936Z,-0.70
2023-02-27T02:09:10.022Z,-0.70
2023-02-27T02:11:38.381Z,-0.70
2023-02-27T02:14:11.297Z,-0.80
2023-02-27T02:17:09.125Z,-0.80
2023-02-27T02:20:00.729Z,-0.80
2023-02-27T02:22:52.293Z,-0.80
2023-02-27T02:25:31.499Z,-0.80
2023-02-27T02:28:10.331Z,-0.90
2023-02-27T02:30:43.716Z,-0.90
2023-02-27T02:33:32.911Z,-0.90
2023-02-27T02:36:37.873Z,-1.00
2023-02-27T02:39:36.429Z,-1.10
2023-02-27T02:42:34.351Z,-1.10
2023-02-27T02:45:17.719Z,-1.20
2023-02-27T02:48:05.808Z,-1.20
2023-02-27T02:50:56.006Z,-1.20
2023-02-27T02:53:44.459Z,-1.20
2023-02-27T02:56:30.470Z,-1.20
2023-02-27T02:59:26.283Z,-1.20
2023-02-27T03:01:56.466Z,-1.20
2023-02-27T03:04:45.958Z,-1.10
2023-02-27T03:07:39.586Z,-1.10
2023-02-27T03:10:36.786Z,-1.10
2023-02-27T03:13:27.593Z,-1.10
2023-02-27T03:16:43.223Z,-1.10
2023-02-27T03:19:19.048Z,-1.10
2023-02-27T03:22:11.594Z,-1.10
2023-02-27T03:24:44.839Z,-1.10
2023-02-27T03:27:12.806Z,-1.20
2023-02-27T03:29:53.591Z,-1.10
2023-02-27T03:32:42.791Z,-1.10
2023-02-27T03:35:11.672Z,-1.10
2023-02-27T03:37:41.618Z,-1.10
2023-02-27T03:40:49.435Z,-1.10
2023-02-27T03:43:44.990Z,-1.10
2023-02-27T03:46:16.701Z,-1.10
2023-02-27T03:48:45.770Z,-1.10
2023-02-27T03:51:15.241Z,-1.10
2023-02-27T03:53:59.921Z,-1.10
2023-02-27T03:56:34.232Z,-1.10
2023-02-27T03:59:01.401Z,-1.10
2023-02-27T04:01:29.793Z,-1.10
2023-02-27T04:04:06.172Z,-1.10
2023-02-27T04:06:53.172Z,-1.10
2023-02-27T04:09:48.761Z,-1.10
2023-02-27T04:12:18.978Z,-1.20
2023-02-27T04:15:21.238Z,-1.20
2023-02-27T04:18:06.307Z,-1.20
2023-02-27T04:20:48.357Z,-1.20
2023-02-27T04:23:29.377Z,-1.30
2023-02-27T04:26:16.605Z,-1.30
2023-02-27T04:29:10.116Z,-1.30
2023-02-27T04:31:59.888Z,-1.30
2023-02-27T04:34:51.188Z,-1.30
2023-02-27T04:37:36.547Z,-1.40
2023-02-27T04:40:09.594Z,-1.40
2023-02-27T04:42:42.703Z,-1.40
2023-02-27T04:45:15.402Z,-1.40
2023-02-27T04:48:12.492Z,-1.40
2023-02-27T04:51:11.795Z,-1.50
2023-02-27T04:53:52.856Z,-1.50
2023-02-27T04:56:38.059Z,-1.50
2023-02-27T04:59:19.622Z,-1.60
2023-02-27T05:02:08.155Z,-1.60
2023-02-27T05:04:40.543Z,-1.60
2023-02-27T05:07:12.202Z,-1.60
2023-02-27T05:09:49.949Z,-1.60
2023-02-27T05:12:38.462Z,-1.60
2023-02-27T05:15:40.145Z,-1.70
2023-02-27T05:18:10.691Z,-1.70
2023-02-27T05:21:11.607Z,-1.70
2023-02-27T05:24:12.508Z,-1.70
2023-02-27T05:27:18.225Z,-1.70
2023-02-27T05:29:48.194Z,-1.80
2023-02-27T05:32:27.161Z,-2.00
2023-02-27T05:35:01.671Z,-2.10
2023-02-27T05:37:48.574Z,-2.10
2023-02-27T05:40:25.433Z,-2.00
2023-02-27T05:43:44.767Z,-2.00
2023-02-27T05:46:29.315Z,-2.00
2023-02-27T05:49:06.070Z,-2.00
2023-02-27T05:51:39.323Z,-2.00
2023-02-27T05:54:18.842Z,-1.90
2023-02-27T05:56:50.096Z,-1.90
2023-02-27T05:59:34.463Z,-1.90
2023-02-27T06:02:01.837Z,-1.90
2023-02-27T06:04:34.993Z,-1.90
2023-02-27T06:07:05.981Z,-2.00
2023-02-27T06:09:34.890Z,-2.00
2023-02-27T06:12:02.367Z,-2.10
2023-02-27T06:14:29.581Z,-2.10
2023-02-27T06:16:57.025Z,-2.10
2023-02-27T06:19:24.467Z,-2.10
2023-02-27T06:21:51.775Z,-2.00
2023-02-27T06:24:20.362Z,-2.00
2023-02-27T06:26:51.803Z,-2.00
2023-02-27T06:29:19.198Z,-2.00
2023-02-27T06:31:46.378Z,-2.00
2023-02-27T06:34:13.619Z,-1.90
2023-02-27T06:36:41.004Z,-1.90
2023-02-27T06:39:08.282Z,-1.90
2023-02-27T06:41:35.934Z,-1.90
2023-02-27T06:44:03.388Z,-1.90
2023-02-27T06:46:30.782Z,-1.90
2023-02-27T06:48:58.626Z,-1.90
2023-02-27T06:51:25.906Z,-1.90
2023-02-27T06:53:53.254Z,-1.80
2023-02-27T06:56:20.548Z,-1.90
2023-02-27T06:58:47.979Z,-1.90
2023-02-27T07:01:15.527Z,-1.80
2023-02-27T07:03:42.855Z,-1.80
2023-02-27T07:06:10.711Z,-1.90
2023-02-27T07:08:37.817Z,-1.90
2023-02-27T07:11:25.823Z,-1.90
2023-02-27T07:13:53.619Z,-1.80
2023-02-27T07:16:21.006Z,-1.90
2023-02-27T07:18:48.794Z,-1.80
2023-02-27T07:21:16.083Z,-1.80
2023-02-27T07:23:43.481Z,-1.70
2023-02-27T07:26:10.840Z,-1.60
2023-02-27T07:28:38.051Z,-1.50
2023-02-27T07:31:05.854Z,-1.40
2023-02-27T07:33:34.312Z,-1.30
2023-02-27T07:36:01.812Z,-1.20
2023-02-27T07:38:32.582Z,-1.20
2023-02-27T07:41:00.034Z,-1.10
2023-02-27T07:43:27.312Z,-1.00
2023-02-27T07:45:54.614Z,-1.00
2023-02-27T07:48:21.838Z,-0.90
2023-02-27T07:50:49.498Z,-0.90
2023-02-27T07:53:16.976Z,-0.80
2023-02-27T07:55:44.275Z,-0.80
2023-02-27T07:58:11.652Z,-0.70
2023-02-27T08:00:39.035Z,-0.70
2023-02-27T08:03:06.728Z,-0.70
2023-02-27T08:05:34.312Z,-0.60
2023-02-27T08:08:01.829Z,-0.60
2023-02-27T08:10:31.883Z,-0.50
2023-02-27T08:12:59.474Z,-0.40
2023-02-27T08:15:26.865Z,-0.30
2023-02-27T08:17:54.141Z,-0.20
2023-02-27T08:20:24.687Z,-0.10
2023-02-27T08:22:51.968Z,0.10
2023-02-27T08:25:19.510Z,0.20
2023-02-27T08:27:46.604Z,0.30
2023-02-27T08:30:14.136Z,0.40
2023-02-27T08:32:41.628Z,0.50
2023-02-27T08:35:09.897Z,0.60
2023-02-27T08:37:37.230Z,0.60
2023-02-27T08:40:07.460Z,0.70
2023-02-27T08:42:35.357Z,0.90
2023-02-27T08:45:03.013Z,1.00
2023-02-27T08:47:30.426Z,1.10
2023-02-27T08:49:57.821Z,1.20
2023-02-27T08:52:25.108Z,1.30
2023-02-27T08:54:52.454Z,1.30
2023-02-27T08:57:19.547Z,1.50
2023-02-27T08:59:46.716Z,1.70
2023-02-27T09:02:14.240Z,1.70
2023-02-27T09:04:41.851Z,1.80
2023-02-27T09:07:09.931Z,2.00
2023-02-27T09:09:39.969Z,2.10
2023-02-27T09:12:07.537Z,2.30
2023-02-27T09:14:34.915Z,2.40
2023-02-27T09:17:02.251Z,2.60
2023-02-27T09:19:29.611Z,2.70
2023-02-27T09:21:57.301Z,2.80
2023-02-27T09:24:24.966Z,3.00
2023-02-27T09:26:52.936Z,3.00
2023-02-27T09:29:21.575Z,3.10
2023-02-27T09:31:52.071Z,3.20
2023-02-27T09:34:19.506Z,3.30
2023-02-27T09:36:47.418Z,3.40
2023-02-27T09:39:17.622Z,3.40
2023-02-27T09:42:01.920Z,3.50
2023-02-27T09:44:45.260Z,3.50
2023-02-27T09:47:22.613Z,3.50
2023-02-27T09:50:02.705Z,3.60
2023-02-27T09:52:33.421Z,3.60
2023-02-27T09:55:01.911Z,3.60
2023-02-27T09:57:29.144Z,3.70
2023-02-27T10:00:07.751Z,3.70
2023-02-27T10:03:12.254Z,3.80
2023-02-27T10:05:51.517Z,3.80
2023-02-27T10:08:58.301Z,3.90
2023-02-27T10:11:35.924Z,4.00
2023-02-27T10:14:19.655Z,4.00
2023-02-27T10:16:50.023Z,4.10
2023-02-27T10:19:27.555Z,4.20
2023-02-27T10:21:56.881Z,4.30
2023-02-27T10:24:32.002Z,4.40
2023-02-27T10:27:03.009Z,4.40
2023-02-27T10:29:41.875Z,4.50
2023-02-27T10:32:31.928Z,4.60
2023-02-27T10:35:10.292Z,4.60
2023-02-27T10:37:45.525Z,4.60
2023-02-27T10:40:14.542Z,4.60
2023-02-27T10:42:42.232Z,4.60
2023-02-27T10:45:19.471Z,4.50
2023-02-27T10:47:46.719Z,4.50
2023-02-27T10:50:35.518Z,4.50
2023-02-27T10:53:07.775Z,4.50
2023-02-27T10:55:38.478Z,4.50
2023-02-27T10:58:06.352Z,4.50
2023-02-27T11:00:45.851Z,4.50
2023-02-27T11:03:23.883Z,4.50
2023-02-27T11:05:58.330Z,4.50
2023-02-27T11:08:29.729Z,4.50
2023-02-27T11:11:02.204Z,4.50
2023-02-27T11:13:32.501Z,4.50
2023-02-27T11:16:07.213Z,4.50
2023-02-27T11:18:36.534Z,4.50
2023-02-27T11:21:24.173Z,4.50
2023-02-27T11:23:54.005Z,4.60
2023-02-27T11:26:54.571Z,4.60
2023-02-27T11:29:22.285Z,4.60
2023-02-27T11:31:55.286Z,4.60
2023-02-27T11:34:48.521Z,4.70
2023-02-27T11:37:37.291Z,4.70
2023-02-27T11:40:16.510Z,4.70
2023-02-27T11:42:56.679Z,4.80
2023-02-27T11:46:16.673Z,4.80
2023-02-27T11:48:35.578Z,4.80
2023-02-27T11:51:21.427Z,4.80
2023-02-27T11:54:16.620Z,4.70
2023-02-27T11:56:56.892Z,4.80
2023-02-27T11:59:45.131Z,4.80
2023-02-27T12:02:45.340Z,4.90
2023-02-27T12:05:20.871Z,4.90
2023-02-27T12:08:01.426Z,5.00
2023-02-27T12:10:55.596Z,5.10
2023-02-27T12:13:35.515Z,5.20
2023-02-27T12:16:26.881Z,5.20
2023-02-27T12:19:25.932Z,5.20
2023-02-27T12:21:59.449Z,5.20
2023-02-27T12:24:39.522Z,5.20
2023-02-27T12:27:29.702Z,5.20
2023-02-27T12:30:06.411Z,5.20
2023-02-27T12:32:46.068Z,5.20
2023-02-27T12:35:35.743Z,5.10
2023-02-27T12:38:04.009Z,5.10
2023-02-27T12:40:47.109Z,5.20
2023-02-27T12:43:41.144Z,5.20
2023-02-27T12:46:17.442Z,5.30
2023-02-27T12:49:12.331Z,5.30
2023-02-27T12:51:53.314Z,5.30
2023-02-27T12:54:34.257Z,5.40
2023-02-27T12:57:30.720Z,5.40
2023-02-27T13:00:18.001Z,5.50
2023-02-27T13:02:57.459Z,5.40
2023-02-27T13:05:32.763Z,5.50
2023-02-27T13:08:08.979Z,5.50
2023-02-27T13:10:51.015Z,5.50
2023-02-27T13:13:39.716Z,5.60
2023-02-27T13:16:17.675Z,5.60
2023-02-27T13:18:54.150Z,5.60
2023-02-27T13:21:38.832Z,5.70
2023-02-27T13:24:23.990Z,5.80
2023-02-27T13:27:13.368Z,5.80
2023-02-27T13:29:47.973Z,5.80
2023-02-27T13:32:41.242Z,5.80
2023-02-27T13:35:36.466Z,5.80
2023-02-27T13:38:29.484Z,5.70
2023-02-27T13:41:00.012Z,5.70
2023-02-27T13:43:46.389Z,5.60
2023-02-27T13:46:33.448Z,5.60
2023-02-27T13:49:10.735Z,5.60
2023-02-27T13:51:47.537Z,5.60
2023-02-27T13:54:14.775Z,5.70
2023-02-27T13:56:49.638Z,5.80
2023-02-27T13:59:25.611Z,6.00
2023-02-27T14:02:01.932Z,6.20
2023-02-27T14:04:37.989Z,6.30
2023-02-27T14:07:15.334Z,6.60
2023-02-27T14:09:45.999Z,6.90
2023-02-27T14:12:45.352Z,7.30
2023-02-27T14:15:22.858Z,7.60
2023-02-27T14:18:12.590Z,7.80
2023-02-27T14:20:41.312Z,8.10
2023-02-27T14:23:26.422Z,8.10
2023-02-27T14:26:16.306Z,8.10
2023-02-27T14:28:48.435Z,7.90
2023-02-27T14:31:37.049Z,7.80
2023-02-27T14:34:06.413Z,7.70
2023-02-27T14:36:40.830Z,7.70
2023-02-27T14:39:29.895Z,7.80
2023-02-27T14:42:07.285Z,7.80
2023-02-27T14:44:46.368Z,7.90
2023-02-27T14:47:33.528Z,8.00
2023-02-27T14:50:02.704Z,8.10
2023-02-27T14:52:32.031Z,8.10
2023-02-27T14:55:29.309Z,8.10
2023-02-27T14:58:08.416Z,8.00
2023-02-27T15:01:06.697Z,7.80
2023-02-27T15:03:57.659Z,7.70
2023-02-27T15:06:46.613Z,7.40
2023-02-27T15:09:37.643Z,7.30
2023-02-27T15:12:06.725Z,7.20
2023-02-27T15:14:42.283Z,7.10
2023-02-27T15:17:26.021Z,6.90
2023-02-27T15:20:17.432Z,6.90
2023-02-27T15:22:46.911Z,6.80
2023-02-27T15:25:37.553Z,6.80
2023-02-27T15:28:35.733Z,6.80
2023-02-27T15:31:03.149Z,6.70
2023-02-27T15:33:33.062Z,6.70
2023-02-27T15:36:01.827Z,6.60
2023-02-27T15:38:32.038Z,6.50
2023-02-27T15:41:01.256Z,6.50
2023-02-27T15:43:30.107Z,6.40
2023-02-27T15:45:58.521Z,6.30
2023-02-27T15:48:26.345Z,6.30
2023-02-27T15:51:01.363Z,6.30
2023-02-27T15:53:34.474Z,6.20
2023-02-27T15:56:07.178Z,6.20
2023-02-27T15:58:37.627Z,6.10
2023-02-27T16:01:23.296Z,6.10
2023-02-27T16:03:52.006Z,6.00
2023-02-27T16:06:30.694Z,6.00
2023-02-27T16:09:06.695Z,6.00
2023-02-27T16:11:37.823Z,6.00
2023-02-27T16:14:06.832Z,5.90
2023-02-27T16:16:37.819Z,5.90
2023-02-27T16:19:29.587Z,5.80
2023-02-27T16:22:22.691Z,5.70
2023-02-27T16:24:51.037Z,5.70
2023-02-27T16:27:29.766Z,5.60
2023-02-27T16:30:02.819Z,5.60
2023-02-27T16:32:38.026Z,5.60
2023-02-27T16:35:21.146Z,5.50
2023-02-27T16:37:50.599Z,5.50
2023-02-27T16:40:24.803Z,5.40
2023-02-27T16:42:53.149Z,5.30
2023-02-27T16:45:28.693Z,5.20
2023-02-27T16:47:58.707Z,5.20
2023-02-27T16:50:33.910Z,5.20
2023-02-27T16:53:01.506Z,5.10
2023-02-27T16:55:29.132Z,5.10
2023-02-27T16:57:56.523Z,5.00
2023-02-27T17:00:24.125Z,5.00
2023-02-27T17:02:56.578Z,4.90
2023-02-27T17:05:24.543Z,4.90
2023-02-27T17:07:53.652Z,4.80
2023-02-27T17:10:25.018Z,4.80
2023-02-27T17:12:55.778Z,4.70
2023-02-27T17:15:23.145Z,4.70
2023-02-27T17:17:50.549Z,4.60
2023-02-27T17:20:18.066Z,4.60
2023-02-27T17:22:46.301Z,4.50
2023-02-27T17:25:14.527Z,4.50
2023-02-27T17:27:45.807Z,4.50
2023-02-27T17:30:14.316Z,4.40
2023-02-27T17:32:41.740Z,4.30
2023-02-27T17:35:12.435Z,4.30
2023-02-27T17:37:39.712Z,4.20
2023-02-27T17:40:08.628Z,4.20
2023-02-27T17:42:36.859Z,4.10
2023-02-27T17:45:06.507Z,4.00
2023-02-27T17:47:39.547Z,4.00
2023-02-27T17:50:10.875Z,3.90
2023-02-27T17:52:41.218Z,3.80
2023-02-27T17:55:09.970Z,3.80
2023-02-27T17:57:38.785Z,3.70
2023-02-27T18:00:09.195Z,3.70
2023-02-27T18:02:37.520Z,3.60
2023-02-27T18:05:08.963Z,3.50
2023-02-27T18:07:36.457Z,3.40
2023-02-27T18:10:11.234Z,3.40
2023-02-27T18:12:38.652Z,3.30
2023-02-27T18:15:06.565Z,3.20
2023-02-27T18:17:34.583Z,3.10
2023-02-27T18:20:01.699Z,3.10
2023-02-27T18:22:32.952Z,3.00
2023-02-27T18:25:01.410Z,3.00
2023-02-27T18:27:28.660Z,2.90
2023-02-27T18:29:58.068Z,2.90
2023-02-27T18:32:25.714Z,2.80
2023-02-27T18:34:53.887Z,2.80
2023-02-27T18:37:21.701Z,2.70
2023-02-27T18:39:49.698Z,2.70
2023-02-27T18:42:17.945Z,2.70
2023-02-27T18:44:45.573Z,2.70
2023-02-27T18:47:13.753Z,2.70
2023-02-27T18:49:44.057Z,2.60
2023-02-27T18:52:14.201Z,2.60
2023-02-27T18:54:42.680Z,2.60
2023-02-27T18:57:10.246Z,2.50
2023-02-27T18:59:37.838Z,2.50
2023-02-27T19:02:05.238Z,2.50
2023-02-27T19:04:36.473Z,2.50
2023-02-27T19:07:03.628Z,2.40
2023-02-27T19:09:33.010Z,2.40
2023-02-27T19:12:01.039Z,2.50
2023-02-27T19:14:28.181Z,2.50
2023-02-27T19:16:57.102Z,2.40
2023-02-27T19:19:28.420Z,2.40
2023-02-27T19:21:56.008Z,2.40
2023-02-27T19:24:23.998Z,2.30
2023-02-27T19:26:53.427Z,2.30
2023-02-27T19:29:21.190Z,2.30
2023-02-27T19:31:48.598Z,2.30
2023-02-27T19:34:16.081Z,2.20
2023-02-27T19:36:43.386Z,2.20
2023-02-27T19:39:11.506Z,2.10
2023-02-27T19:41:38.707Z,2.10
2023-02-27T19:44:06.388Z,2.10
2023-02-27T19:46:35.063Z,2.00
2023-02-27T19:49:07.908Z,2.00
2023-02-27T19:51:35.448Z,1.90
2023-02-27T19:54:02.741Z,1.90
2023-02-27T19:56:31.210Z,1.90
2023-02-27T19:59:00.925Z,1.90
2023-02-27T20:01:39.125Z,1.90
2023-02-27T20:04:08.341Z,1.80
2023-02-27T20:06:42.418Z,1.80
2023-02-27T20:09:13.542Z,1.80
2023-02-27T20:11:42.420Z,1.80
2023-02-27T20:14:10.386Z,1.80
2023-02-27T20:16:38.172Z,1.70
2023-02-27T20:19:06.745Z,1.70
2023-02-27T20:21:34.861Z,1.70
2023-02-27T20:24:02.281Z,1.70
2023-02-27T20:26:33.548Z,1.70
2023-02-27T20:29:04.658Z,1.70
2023-02-27T20:31:34.130Z,1.70
2023-02-27T20:34:02.019Z,1.60
2023-02-27T20:36:29.387Z,1.60
2023-02-27T20:38:56.694Z,1.60
2023-02-27T20:41:28.229Z,1.60
2023-02-27T20:43:57.526Z,1.60
2023-02-27T20:46:28.709Z,1.60
2023-02-27T20:48:58.128Z,1.60
2023-02-27T20:51:26.900Z,1.60
2023-02-27T20:53:56.444Z,1.60
2023-02-27T20:56:30.327Z,1.50
2023-02-27T20:58:59.964Z,1.40
2023-02-27T21:01:30.121Z,1.40
2023-02-27T21:03:59.058Z,1.40
2023-02-27T21:06:27.609Z,1.40
2023-02-27T21:08:59.839Z,1.40
2023-02-27T21:11:30.272Z,1.40
2023-02-27T21:14:02.475Z,1.50
2023-02-27T21:16:30.400Z,1.40
2023-02-27T21:18:58.335Z,1.40
2023-02-27T21:21:29.561Z,1.30
2023-02-27T21:24:01.688Z,1.30
2023-02-27T21:26:38.568Z,1.30
2023-02-27T21:29:16.778Z,1.30
2023-02-27T21:31:46.253Z,1.30
2023-02-27T21:34:19.640Z,1.20
2023-02-27T21:36:48.071Z,1.20
2023-02-27T21:39:21.512Z,1.20
2023-02-27T21:41:49.697Z,1.20
2023-02-27T21:44:19.570Z,1.10
2023-02-27T21:46:48.879Z,1.10
2023-02-27T21:49:22.902Z,1.10
2023-02-27T21:51:50.433Z,1.10
2023-02-27T21:54:18.888Z,1.00
2023-02-27T21:56:48.205Z,1.00
2023-02-27T21:59:16.181Z,1.00
2023-02-27T22:01:47.639Z,1.00
2023-02-27T22:04:20.785Z,1.00
2023-02-27T22:06:50.425Z,1.00
2023-02-27T22:09:18.098Z,1.00
2023-02-27T22:11:45.824Z,1.00
2023-02-27T22:14:13.498Z,1.00
2023-02-27T22:16:44.221Z,1.00
2023-02-27T22:19:21.759Z,1.00
2023-02-27T22:21:49.914Z,0.90
2023-02-27T22:24:17.351Z,0.90
2023-02-27T22:26:46.081Z,0.90
2023-02-27T22:29:13.802Z,0.90
2023-02-27T22:31:41.114Z,0.90
2023-02-27T22:34:15.463Z,0.90
2023-02-27T22:36:42.786Z,0.90
2023-02-27T22:39:13.593Z,0.90
2023-02-27T22:41:42.359Z,0.90
2023-02-27T22:44:12.488Z,0.90
2023-02-27T22:46:42.670Z,0.90
2023-02-27T22:49:24.000Z,0.80
2023-02-27T22:51:52.479Z,0.80
2023-02-27T22:54:22.191Z,0.80
2023-02-27T22:56:54.006Z,0.80
2023-02-27T22:59:23.120Z,0.80
2023-02-27T23:01:50.735Z,0.80
2023-02-27T23:04:18.677Z,0.80
2023-02-27T23:06:46.063Z,0.80
2023-02-27T23:09:16.522Z,0.80
2023-02-27T23:11:44.128Z,0.80
2023-02-27T23:14:12.859Z,0.70
2023-02-27T23:16:40.781Z,0.70
2023-02-27T23:19:10.880Z,0.70
2023-02-27T23:21:38.221Z,0.60
2023-02-27T23:24:07.405Z,0.60
2023-02-27T23:26:43.388Z,0.60
2023-02-27T23:29:11.476Z,0.50
2023-02-27T23:31:39.079Z,0.60
2023-02-27T23:34:07.250Z,0.60
2023-02-27T23:36:38.284Z,0.60
2023-02-27T23:39:06.793Z,0.60
2023-02-27T23:41:34.880Z,0.60
2023-02-27T23:44:21.043Z,0.60
2023-02-27T23:46:48.348Z,0.60
2023-02-27T23:49:15.729Z,0.60
2023-02-27T23:51:43.169Z,0.60
2023-02-27T23:54:10.878Z,0.50
2023-02-27T23:56:38.353Z,0.40
2023-02-27T23:59:06.969Z,0.40
